Time;durP1;ratioP1;P1;durP2;ratioP2;P2;SDS_P1;SDS_P2;PMS_P1;PMS_P2;Temp;Humidity;BMP_temperature;BMP_pressure;BME280_temperature;BME280_humidity;BME280_pressure;Samples;Min_cycle;Max_cycle;Signal;HPM_P1;HPM_P2
2022/07/06 00:00:11;;;;;;;1.90;1.80;;;26.60;40.50;;;;;;5128100;27;20857;-47
2022/07/06 00:03:11;;;;;;;2.37;1.80;;;26.60;40.60;;;;;;5074064;27;20573;-48
2022/07/06 00:05:52;;;;;;;3.17;2.53;;;26.50;40.40;;;;;;5070115;28;20550;-48
2022/07/06 00:08:32;;;;;;;1.93;1.67;;;26.50;40.50;;;;;;5080342;27;21063;-48
2022/07/06 00:11:12;;;;;;;1.73;1.30;;;26.50;40.40;;;;;;5074774;28;20543;-49
2022/07/06 00:13:56;;;;;;;2.47;1.60;;;26.50;40.40;;;;;;5149121;27;20860;-47
2022/07/06 00:16:36;;;;;;;1.40;1.30;;;26.50;40.50;;;;;;5107744;27;20542;-48
2022/07/06 00:19:16;;;;;;;2.60;1.90;;;26.50;40.50;;;;;;5082623;27;20662;-48
2022/07/06 00:21:56;;;;;;;2.30;1.50;;;26.50;40.60;;;;;;5062129;28;20607;-47
2022/07/06 00:24:36;;;;;;;1.93;1.73;;;26.50;40.40;;;;;;5074768;27;20548;-48
2022/07/06 00:27:16;;;;;;;1.60;1.50;;;26.50;40.50;;;;;;5054994;27;20797;-48
2022/07/06 00:29:56;;;;;;;1.43;1.33;;;26.50;40.50;;;;;;5068456;27;21089;-48
2022/07/06 00:32:37;;;;;;;1.67;1.50;;;26.50;40.50;;;;;;5099095;27;20549;-49
2022/07/06 00:35:17;;;;;;;1.77;1.50;;;26.50;40.80;;;;;;5079488;28;20528;-48
2022/07/06 00:37:56;;;;;;;2.50;1.60;;;26.50;40.80;;;;;;5073882;27;20525;-49
2022/07/06 00:40:36;;;;;;;1.50;1.40;;;26.50;40.60;;;;;;5112064;27;21082;-48
2022/07/06 00:43:16;;;;;;;1.70;1.60;;;26.50;41.00;;;;;;5128330;27;20570;-48
2022/07/06 00:45:56;;;;;;;1.97;1.40;;;26.50;41.20;;;;;;5124980;27;20593;-48
2022/07/06 00:48:38;;;;;;;2.13;1.60;;;26.50;41.00;;;;;;5082883;27;20531;-48
2022/07/06 00:51:19;;;;;;;2.50;1.40;;;26.50;41.00;;;;;;5072029;27;20675;-48
2022/07/06 00:54:03;;;;;;;1.80;1.70;;;26.40;41.00;;;;;;5099579;27;20588;-47
2022/07/06 00:56:43;;;;;;;1.70;1.20;;;26.40;41.00;;;;;;5069787;27;20599;-48
2022/07/06 00:59:25;;;;;;;1.70;1.23;;;26.40;41.00;;;;;;5081129;28;20571;-47
2022/07/06 01:02:06;;;;;;;1.60;1.50;;;26.40;40.90;;;;;;5061051;27;21143;-47
2022/07/06 01:04:47;;;;;;;1.40;1.30;;;26.40;40.90;;;;;;5078892;28;20577;-48
2022/07/06 01:07:28;;;;;;;2.07;1.40;;;26.40;40.80;;;;;;5062295;27;21088;-48
2022/07/06 01:10:10;;;;;;;2.13;1.10;;;26.40;41.00;;;;;;5072013;28;20980;-49
2022/07/06 01:12:52;;;;;;;1.57;1.40;;;26.40;40.90;;;;;;5076925;27;21046;-48
2022/07/06 01:15:33;;;;;;;2.20;1.73;;;26.40;40.90;;;;;;5075164;28;21125;-47
2022/07/06 01:18:15;;;;;;;2.27;1.70;;;26.40;41.10;;;;;;5061273;28;20566;-49
2022/07/06 01:21:10;;;;;;;1.40;1.30;;;26.40;40.90;;;;;;5074719;27;20549;-48
2022/07/06 01:23:52;;;;;;;1.67;1.40;;;26.40;40.50;;;;;;5078202;28;20586;-49
2022/07/06 01:26:32;;;;;;;1.40;1.30;;;26.40;41.00;;;;;;5065084;28;20604;-47
2022/07/06 01:29:13;;;;;;;1.63;1.53;;;26.40;41.10;;;;;;5128678;27;20924;-48
2022/07/06 01:31:55;;;;;;;1.60;1.50;;;26.30;40.80;;;;;;5050180;27;20542;-48
2022/07/06 01:34:36;;;;;;;2.10;1.53;;;26.40;40.90;;;;;;5063219;27;20588;-48
2022/07/06 01:37:15;;;;;;;1.60;1.40;;;26.30;41.00;;;;;;5065376;27;20956;-47
2022/07/06 01:39:59;;;;;;;1.83;1.60;;;26.30;41.00;;;;;;5060415;28;20583;-46
2022/07/06 01:42:40;;;;;;;1.73;1.40;;;26.30;41.20;;;;;;5041218;27;20963;-48
2022/07/06 01:45:21;;;;;;;1.70;1.50;;;26.30;41.00;;;;;;5077975;28;20573;-48
2022/07/06 01:48:09;;;;;;;1.07;1.00;;;26.30;41.00;;;;;;5043774;28;20815;-49
2022/07/06 01:50:55;;;;;;;1.73;1.27;;;26.30;40.90;;;;;;5039185;28;20459;-48
2022/07/06 01:53:42;;;;;;;1.40;1.30;;;26.30;40.90;;;;;;5027994;28;20499;-49
2022/07/06 01:56:24;;;;;;;0.97;0.90;;;26.30;40.90;;;;;;5117404;27;20564;-48
2022/07/06 01:59:10;;;;;;;3.93;1.37;;;26.30;41.00;;;;;;5083436;28;20509;-48
2022/07/06 02:01:51;;;;;;;1.40;1.30;;;26.20;41.10;;;;;;5086560;27;20545;-47
2022/07/06 02:04:31;;;;;;;1.47;1.37;;;26.30;41.00;;;;;;5112595;27;20576;-49
2022/07/06 02:07:12;;;;;;;1.53;1.40;;;26.20;41.10;;;;;;5071369;27;20587;-48
2022/07/06 02:09:54;;;;;;;1.40;1.30;;;26.20;41.20;;;;;;5073939;28;20579;-49
2022/07/06 02:12:37;;;;;;;1.67;1.50;;;26.20;41.10;;;;;;5049520;27;20545;-49
2022/07/06 02:15:17;;;;;;;1.20;0.93;;;26.20;41.00;;;;;;5082493;27;20944;-49
2022/07/06 02:17:56;;;;;;;1.27;1.17;;;26.20;41.20;;;;;;5059335;27;20576;-48
2022/07/06 02:20:38;;;;;;;1.40;1.30;;;26.20;41.20;;;;;;5071617;28;21032;-48
2022/07/06 02:23:19;;;;;;;1.70;1.30;;;26.20;41.20;;;;;;5080992;27;20583;-49
2022/07/06 02:26:01;;;;;;;1.53;1.43;;;26.20;41.00;;;;;;5044198;28;20603;-48
2022/07/06 02:28:42;;;;;;;2.20;1.10;;;26.10;41.00;;;;;;5071085;27;20579;-48
2022/07/06 02:31:23;;;;;;;1.27;1.17;;;26.20;41.10;;;;;;5118929;27;20538;-46
2022/07/06 02:34:03;;;;;;;1.43;1.33;;;26.10;41.10;;;;;;5079057;27;20936;-48
2022/07/06 02:36:44;;;;;;;1.43;1.23;;;26.10;40.90;;;;;;5053648;28;20609;-49
2022/07/06 02:39:24;;;;;;;1.40;1.30;;;26.10;40.80;;;;;;5076175;27;20584;-48
2022/07/06 02:42:06;;;;;;;1.33;1.23;;;26.10;40.80;;;;;;5090774;27;20530;-49
2022/07/06 02:44:47;;;;;;;1.40;1.30;;;26.10;40.80;;;;;;5107504;27;20576;-47
2022/07/06 02:47:29;;;;;;;1.37;1.27;;;26.10;40.70;;;;;;5053025;27;20549;-48
2022/07/06 02:50:10;;;;;;;1.80;1.30;;;26.10;40.80;;;;;;5128425;27;20586;-48
2022/07/06 02:52:52;;;;;;;2.30;1.50;;;26.10;40.80;;;;;;5123498;27;21043;-47
2022/07/06 02:55:33;;;;;;;2.40;1.27;;;26.10;40.70;;;;;;5067243;27;20602;-48
2022/07/06 02:58:14;;;;;;;1.60;1.50;;;26.10;40.80;;;;;;5124509;27;20580;-48
2022/07/06 03:00:56;;;;;;;2.17;1.50;;;26.00;40.80;;;;;;5097194;27;20602;-48
2022/07/06 03:03:35;;;;;;;1.67;1.57;;;26.00;40.90;;;;;;5104529;27;20607;-47
2022/07/06 03:06:17;;;;;;;1.57;1.23;;;26.00;40.90;;;;;;5076867;27;20604;-48
2022/07/06 03:08:58;;;;;;;1.83;1.40;;;26.00;41.00;;;;;;5100519;27;20563;-47
2022/07/06 03:11:38;;;;;;;1.97;1.37;;;26.00;41.00;;;;;;5068886;27;20697;-49
2022/07/06 03:14:20;;;;;;;1.80;1.50;;;26.00;40.90;;;;;;5108498;27;20572;-48
2022/07/06 03:17:03;;;;;;;1.40;1.30;;;26.00;40.90;;;;;;5085785;27;20547;-46
2022/07/06 03:19:44;;;;;;;2.30;1.47;;;26.00;40.80;;;;;;5077507;28;20575;-47
2022/07/06 03:22:25;;;;;;;2.00;1.63;;;26.00;41.00;;;;;;5069324;27;20602;-47
2022/07/06 03:25:07;;;;;;;2.07;1.27;;;26.00;40.90;;;;;;5103511;27;20598;-48
2022/07/06 03:27:50;;;;;;;1.50;1.40;;;26.00;41.00;;;;;;5106703;27;20522;-47
2022/07/06 03:30:31;;;;;;;1.63;1.20;;;26.00;41.00;;;;;;5090798;27;21016;-48
2022/07/06 03:33:13;;;;;;;2.57;1.63;;;26.00;41.00;;;;;;5074220;27;20946;-48
2022/07/06 03:35:54;;;;;;;2.43;1.57;;;25.90;40.90;;;;;;5076743;28;20601;-49
2022/07/06 03:38:38;;;;;;;1.83;1.30;;;25.90;40.90;;;;;;5079111;27;20532;-47
2022/07/06 03:41:18;;;;;;;2.57;1.37;;;25.90;40.90;;;;;;5070947;28;20531;-48
2022/07/06 03:44:00;;;;;;;1.80;1.30;;;25.90;40.70;;;;;;5084751;27;20521;-47
2022/07/06 03:46:41;;;;;;;2.30;1.20;;;25.90;40.80;;;;;;5055152;28;20598;-47
2022/07/06 03:49:26;;;;;;;1.60;1.50;;;25.90;40.70;;;;;;5072301;27;20921;-48
2022/07/06 03:52:09;;;;;;;1.60;1.47;;;25.90;40.70;;;;;;5070248;27;20534;-48
2022/07/06 03:54:57;;;;;;;3.33;1.67;;;25.90;40.80;;;;;;5121848;27;20581;-48
2022/07/06 03:57:43;;;;;;;1.83;1.40;;;25.90;40.70;;;;;;5059690;27;20606;-49
2022/07/06 04:00:27;;;;;;;2.20;2.00;;;25.80;40.70;;;;;;5076885;27;20582;-48
2022/07/06 04:03:13;;;;;;;1.57;1.27;;;25.80;40.50;;;;;;5072980;28;20588;-48
2022/07/06 04:06:00;;;;;;;1.37;1.27;;;25.80;40.50;;;;;;5066247;27;20604;-48
2022/07/06 04:08:40;;;;;;;1.40;1.20;;;25.80;40.60;;;;;;5070390;27;20954;-48
2022/07/06 04:11:19;;;;;;;1.50;1.40;;;25.80;40.50;;;;;;5070953;28;20537;-47
2022/07/06 04:13:59;;;;;;;2.03;1.77;;;25.80;40.70;;;;;;5104362;27;20578;-49
2022/07/06 04:16:41;;;;;;;2.10;1.90;;;25.80;40.70;;;;;;5115144;27;20538;-47
2022/07/06 04:19:21;;;;;;;1.35;1.20;;;25.80;40.70;;;;;;5151249;27;1207423;-46
2022/07/06 04:22:02;;;;;;;1.67;1.57;;;25.80;40.70;;;;;;5066996;27;20583;-47
2022/07/06 04:24:50;;;;;;;1.57;1.43;;;25.70;40.60;;;;;;5054483;28;20918;-48
2022/07/06 04:27:31;;;;;;;2.80;1.57;;;25.70;40.70;;;;;;5068796;27;20606;-49
2022/07/06 04:30:13;;;;;;;4.10;1.60;;;25.70;40.70;;;;;;5079606;27;20574;-47
2022/07/06 04:32:56;;;;;;;1.60;1.50;;;25.70;40.70;;;;;;5098167;27;20584;-47
2022/07/06 04:35:40;;;;;;;1.57;1.47;;;25.70;40.80;;;;;;5067177;28;20579;-48
2022/07/06 04:38:22;;;;;;;1.87;1.27;;;25.70;40.60;;;;;;5143213;27;20593;-47
2022/07/06 04:41:04;;;;;;;1.50;1.40;;;25.70;40.70;;;;;;5072931;28;20587;-47
2022/07/06 04:43:46;;;;;;;1.33;1.23;;;25.70;40.80;;;;;;5081102;27;20939;-48
2022/07/06 04:46:30;;;;;;;1.50;1.40;;;25.70;40.70;;;;;;5059598;28;20559;-48
2022/07/06 04:49:12;;;;;;;2.00;1.00;;;25.70;40.90;;;;;;5083062;28;20535;-47
2022/07/06 04:51:53;;;;;;;1.63;1.00;;;25.70;40.80;;;;;;5104562;27;20950;-48
2022/07/06 04:54:35;;;;;;;2.20;1.43;;;25.70;40.90;;;;;;5120313;27;20991;-47
2022/07/06 04:57:16;;;;;;;1.93;1.20;;;25.60;40.80;;;;;;5057372;27;20687;-46
2022/07/06 04:59:58;;;;;;;2.10;1.23;;;25.60;40.90;;;;;;5067494;28;20575;-49
2022/07/06 05:02:37;;;;;;;1.43;1.33;;;25.60;40.70;;;;;;5059551;27;20959;-48
2022/07/06 05:05:19;;;;;;;1.40;1.30;;;25.60;40.80;;;;;;5082041;27;20540;-47
2022/07/06 05:08:02;;;;;;;1.70;1.50;;;25.60;41.00;;;;;;5117305;27;20923;-48
2022/07/06 05:10:42;;;;;;;1.63;1.53;;;25.60;41.00;;;;;;5071766;28;25885;-48
2022/07/06 05:13:23;;;;;;;2.00;1.60;;;25.60;40.90;;;;;;5097178;27;20578;-47
2022/07/06 05:16:05;;;;;;;1.83;1.30;;;25.50;40.90;;;;;;5063409;27;21133;-47
2022/07/06 05:18:46;;;;;;;1.40;1.23;;;25.50;41.00;;;;;;5077334;27;20532;-48
2022/07/06 05:21:27;;;;;;;1.50;1.40;;;25.50;41.00;;;;;;5076970;28;20586;-48
2022/07/06 05:24:08;;;;;;;1.80;1.30;;;25.50;40.90;;;;;;5079230;28;20927;-48
2022/07/06 05:26:48;;;;;;;1.67;1.57;;;25.50;40.90;;;;;;5087042;27;20546;-48
2022/07/06 05:29:30;;;;;;;2.30;1.73;;;25.50;40.90;;;;;;5113135;27;20556;-48
2022/07/06 05:32:10;;;;;;;2.03;1.83;;;25.50;41.00;;;;;;5033319;28;20962;-48
2022/07/06 05:34:52;;;;;;;2.80;1.40;;;25.50;40.70;;;;;;5125423;27;20539;-49
2022/07/06 05:37:34;;;;;;;1.93;1.70;;;25.50;40.90;;;;;;5067926;27;20615;-49
2022/07/06 05:40:15;;;;;;;1.50;1.40;;;25.40;40.80;;;;;;5073828;28;20716;-49
2022/07/06 05:42:55;;;;;;;4.00;1.33;;;25.50;40.70;;;;;;5083706;28;20597;-48
2022/07/06 05:45:37;;;;;;;2.07;1.63;;;25.40;40.80;;;;;;5086330;27;20531;-47
2022/07/06 05:51:17;;;;;;;2.40;1.57;;;25.40;40.70;;;;;;5061552;27;20601;-48
2022/07/06 05:53:59;;;;;;;1.83;1.73;;;25.40;40.60;;;;;;5113785;27;20915;-47
2022/07/06 05:56:40;;;;;;;1.60;1.50;;;25.40;40.70;;;;;;5083814;27;20540;-48
2022/07/06 05:59:21;;;;;;;1.73;1.50;;;25.40;40.80;;;;;;5081476;27;20513;-49
2022/07/06 06:02:03;;;;;;;1.50;1.40;;;25.40;40.70;;;;;;5037024;27;20617;-47
2022/07/06 06:04:44;;;;;;;2.00;1.63;;;25.40;40.50;;;;;;5104127;27;21106;-48
2022/07/06 06:07:26;;;;;;;1.97;1.50;;;25.40;40.60;;;;;;5057646;27;20596;-49
2022/07/06 06:10:10;;;;;;;1.57;1.47;;;25.40;40.50;;;;;;5092306;27;21068;-48
2022/07/06 06:12:52;;;;;;;1.50;1.40;;;25.40;40.60;;;;;;5059844;27;20583;-47
2022/07/06 06:15:33;;;;;;;1.80;1.07;;;25.40;40.50;;;;;;5114443;27;20594;-49
2022/07/06 06:18:16;;;;;;;1.33;1.00;;;25.40;40.50;;;;;;5102121;27;20541;-48
2022/07/06 06:20:57;;;;;;;1.43;1.27;;;25.30;40.50;;;;;;5087255;27;20610;-48
2022/07/06 06:23:37;;;;;;;1.40;1.30;;;25.30;40.40;;;;;;5106081;27;20591;-48
2022/07/06 06:26:19;;;;;;;1.60;1.27;;;25.30;40.50;;;;;;5067250;27;20588;-49
2022/07/06 06:29:00;;;;;;;2.77;1.63;;;25.30;40.40;;;;;;5067012;27;20543;-47
2022/07/06 06:31:41;;;;;;;1.20;1.10;;;25.30;40.50;;;;;;5093110;27;20606;-49
2022/07/06 06:34:23;;;;;;;1.50;1.33;;;25.20;40.40;;;;;;5077888;27;20991;-48
2022/07/06 06:37:04;;;;;;;1.60;1.30;;;25.20;40.60;;;;;;5049175;28;20701;-47
2022/07/06 06:39:46;;;;;;;1.53;1.20;;;25.30;41.90;;;;;;5116405;22;20588;-50
2022/07/06 06:42:27;;;;;;;0.80;0.80;;;25.20;40.50;;;;;;5069910;27;20544;-47
2022/07/06 06:45:10;;;;;;;1.30;1.00;;;25.20;40.50;;;;;;5101479;27;20527;-47
2022/07/06 06:47:50;;;;;;;2.10;1.53;;;25.30;40.70;;;;;;5106047;27;20567;-48
2022/07/06 06:50:32;;;;;;;1.20;1.10;;;25.20;40.50;;;;;;5073161;27;20540;-48
2022/07/06 06:53:13;;;;;;;1.50;1.30;;;25.20;40.50;;;;;;5084835;27;20529;-48
2022/07/06 06:55:54;;;;;;;1.20;1.10;;;25.20;40.30;;;;;;5066906;28;20967;-48
2022/07/06 06:58:34;;;;;;;1.30;1.20;;;25.20;40.50;;;;;;5077811;27;20590;-49
2022/07/06 07:01:35;;;;;;;1.40;1.30;;;25.20;40.60;;;;;;5060048;27;20539;-48
2022/07/06 07:04:16;;;;;;;3.00;0.90;;;25.20;40.50;;;;;;5123839;27;20549;-50
2022/07/06 07:06:56;;;;;;;1.20;1.10;;;25.20;40.30;;;;;;5065155;27;1220456;-50
2022/07/06 07:09:37;;;;;;;1.63;1.30;;;25.20;40.60;;;;;;5076896;27;20545;-48
2022/07/06 07:12:17;;;;;;;1.30;1.20;;;25.10;40.50;;;;;;5063263;27;20533;-48
2022/07/06 07:14:57;;;;;;;2.37;1.00;;;25.10;40.60;;;;;;5065512;27;21001;-47
2022/07/06 07:17:36;;;;;;;1.80;1.00;;;25.10;40.70;;;;;;5057910;27;21568;-47
2022/07/06 07:20:18;;;;;;;2.80;1.23;;;25.10;40.70;;;;;;5114746;27;21017;-50
2022/07/06 07:22:58;;;;;;;5.23;1.53;;;25.10;40.60;;;;;;5105371;27;21037;-48
2022/07/06 07:25:39;;;;;;;1.63;1.53;;;25.10;40.50;;;;;;5114253;27;20588;-47
2022/07/06 07:28:21;;;;;;;1.30;1.00;;;25.10;40.80;;;;;;5075794;27;20547;-48
2022/07/06 07:31:03;;;;;;;1.27;1.00;;;25.10;40.90;;;;;;5100413;27;21030;-47
2022/07/06 07:33:43;;;;;;;1.70;1.27;;;25.10;40.80;;;;;;5099029;27;20555;-48
2022/07/06 07:36:23;;;;;;;1.10;1.00;;;25.10;40.90;;;;;;5069325;27;21013;-47
2022/07/06 07:39:05;;;;;;;1.13;0.90;;;25.10;40.90;;;;;;5121205;27;20587;-49
2022/07/06 07:41:46;;;;;;;0.87;0.77;;;25.10;41.00;;;;;;5071947;27;20588;-47
2022/07/06 07:44:27;;;;;;;1.47;0.90;;;25.10;41.00;;;;;;5079339;27;20562;-48
2022/07/06 07:47:09;;;;;;;1.13;0.80;;;25.00;41.00;;;;;;5040861;27;20617;-49
2022/07/06 07:49:50;;;;;;;1.40;1.20;;;25.00;40.80;;;;;;5069035;28;20536;-48
2022/07/06 07:52:32;;;;;;;0.87;0.73;;;25.00;40.80;;;;;;5063996;27;20574;-48
2022/07/06 07:55:13;;;;;;;1.35;1.05;;;25.00;41.30;;;;;;5084599;27;20509;-48
2022/07/06 07:58:14;;;;;;;1.20;1.10;;;25.00;40.80;;;;;;5081884;28;20571;-48
2022/07/06 08:00:55;;;;;;;2.47;1.07;;;25.00;40.50;;;;;;5108171;27;20540;-48
2022/07/06 08:03:37;;;;;;;3.23;0.97;;;24.90;40.30;;;;;;5080563;27;21129;-52
2022/07/06 08:06:18;;;;;;;1.33;0.90;;;25.00;40.30;;;;;;5090596;27;21167;-48
2022/07/06 08:08:58;;;;;;;1.42;0.88;;;25.00;40.20;;;;;;5125264;27;1238417;-48
2022/07/06 08:11:39;;;;;;;1.13;1.03;;;24.90;40.10;;;;;;5066358;27;20895;-49
2022/07/06 08:14:21;;;;;;;0.80;0.70;;;24.90;40.20;;;;;;5068194;27;20891;-48
2022/07/06 08:17:02;;;;;;;1.60;1.30;;;24.90;40.20;;;;;;5038127;28;20561;-48
2022/07/06 08:19:43;;;;;;;0.80;0.73;;;24.90;40.40;;;;;;5069307;27;20616;-48
2022/07/06 08:22:23;;;;;;;1.00;0.90;;;24.90;40.40;;;;;;5077105;27;20571;-49
2022/07/06 08:25:05;;;;;;;1.07;0.77;;;24.90;40.40;;;;;;5104885;27;20595;-49
2022/07/06 08:27:46;;;;;;;1.97;1.17;;;24.90;40.60;;;;;;5107674;27;20546;-47
2022/07/06 08:30:27;;;;;;;1.07;0.80;;;24.90;40.60;;;;;;5119454;27;20522;-48
2022/07/06 08:33:07;;;;;;;2.10;1.10;;;24.90;40.60;;;;;;5126649;27;20590;-50
2022/07/06 08:35:47;;;;;;;2.30;0.90;;;24.90;40.70;;;;;;5122950;27;20541;-51
2022/07/06 08:38:28;;;;;;;0.90;0.70;;;24.90;40.70;;;;;;5094585;27;20601;-49
2022/07/06 08:41:08;;;;;;;1.30;0.73;;;24.90;40.70;;;;;;5069511;28;20594;-47
2022/07/06 08:43:51;;;;;;;1.80;1.00;;;24.90;40.80;;;;;;5075831;28;20469;-49
2022/07/06 08:46:33;;;;;;;1.00;0.80;;;24.90;40.50;;;;;;5061164;28;20532;-48
2022/07/06 08:49:17;;;;;;;1.63;0.90;;;24.80;40.30;;;;;;5116699;27;20524;-47
2022/07/06 08:51:57;;;;;;;1.47;0.83;;;24.80;40.60;;;;;;5055225;28;21059;-46
2022/07/06 08:54:38;;;;;;;0.90;0.70;;;24.90;40.60;;;;;;5117147;27;20656;-51
2022/07/06 08:57:21;;;;;;;0.90;0.77;;;24.90;40.70;;;;;;5071541;27;20555;-48
2022/07/06 09:00:01;;;;;;;1.63;1.10;;;24.90;40.80;;;;;;5086866;27;20579;-48
2022/07/06 09:02:43;;;;;;;1.00;0.90;;;24.80;39.90;;;;;;5063070;27;20940;-46
2022/07/06 09:05:25;;;;;;;1.30;1.20;;;24.80;40.30;;;;;;5093403;27;20576;-48
2022/07/06 09:08:05;;;;;;;2.80;1.10;;;24.90;40.40;;;;;;5115703;27;20610;-47
2022/07/06 09:10:47;;;;;;;1.23;0.80;;;24.80;40.50;;;;;;5065900;28;20942;-48
2022/07/06 09:13:25;;;;;;;1.03;0.93;;;24.80;40.60;;;;;;5133079;27;1258921;-47
2022/07/06 09:16:14;;;;;;;2.13;0.80;;;24.80;40.40;;;;;;5113604;27;20613;-48
2022/07/06 09:19:17;;;;;;;1.40;0.77;;;24.80;40.60;;;;;;5115815;27;20994;-48
2022/07/06 09:21:56;;;;;;;1.50;1.33;;;24.80;40.50;;;;;;5043988;28;20617;-48
2022/07/06 09:24:42;;;;;;;1.80;0.90;;;24.80;39.30;;;;;;5079682;28;21050;-46
2022/07/06 09:27:23;;;;;;;1.70;1.20;;;24.70;39.90;;;;;;5055277;27;20608;-48
2022/07/06 09:30:06;;;;;;;1.03;0.90;;;24.70;40.20;;;;;;5130039;27;20546;-49
2022/07/06 09:32:49;;;;;;;1.50;0.97;;;24.70;40.30;;;;;;5043986;27;20551;-46
2022/07/06 09:35:31;;;;;;;1.10;0.93;;;24.70;40.00;;;;;;5110577;27;20539;-49
2022/07/06 09:38:13;;;;;;;2.00;0.93;;;24.70;40.20;;;;;;5079772;28;20942;-49
2022/07/06 09:40:55;;;;;;;1.50;1.10;;;24.70;40.20;;;;;;5092981;27;20666;-50
2022/07/06 09:43:36;;;;;;;1.30;0.90;;;24.70;40.30;;;;;;5126432;27;20507;-48
2022/07/06 09:46:19;;;;;;;1.07;0.97;;;24.70;40.40;;;;;;5057778;27;20566;-48
2022/07/06 09:49:01;;;;;;;1.30;1.10;;;24.70;40.50;;;;;;5122727;27;20568;-49
2022/07/06 09:51:42;;;;;;;0.97;0.80;;;24.70;40.00;;;;;;5060852;27;21180;-47
2022/07/06 09:54:22;;;;;;;1.53;0.80;;;24.70;40.20;;;;;;5127179;27;1278064;-49
2022/07/06 09:57:04;;;;;;;3.17;1.13;;;24.70;40.20;;;;;;5086583;27;20606;-48
2022/07/06 09:59:52;;;;;;;1.50;1.10;;;24.70;40.40;;;;;;5071740;28;21056;-47
2022/07/06 10:02:34;;;;;;;1.23;1.13;;;24.70;40.20;;;;;;5045286;27;20596;-47
2022/07/06 10:05:18;;;;;;;1.20;1.10;;;24.70;40.60;;;;;;5114116;27;20539;-49
2022/07/06 15:35:19;;;;;;;2.00;1.67;;;24.80;37.00;;;;;;5123268;27;20574;-50
2022/07/06 15:38:00;;;;;;;1.23;0.70;;;24.80;38.00;;;;;;5107855;27;20593;-50
2022/07/06 15:40:45;;;;;;;2.40;1.03;;;24.80;38.50;;;;;;5123370;27;20548;-52
2022/07/06 15:43:26;;;;;;;1.77;0.93;;;24.80;37.00;;;;;;5088304;28;20563;-51
2022/07/06 15:46:08;;;;;;;1.97;1.03;;;24.90;37.40;;;;;;5077925;27;20984;-50
2022/07/06 15:48:49;;;;;;;1.20;0.93;;;24.90;37.50;;;;;;5077476;28;20536;-49
2022/07/06 15:51:30;;;;;;;2.23;1.07;;;24.90;37.70;;;;;;5102931;27;20555;-50
2022/07/06 15:54:12;;;;;;;1.13;0.70;;;24.90;38.10;;;;;;5100721;27;20532;-51
2022/07/06 15:56:53;;;;;;;4.00;0.97;;;24.90;38.20;;;;;;5092897;27;20534;-50
2022/07/06 15:59:34;;;;;;;1.37;0.90;;;24.90;38.10;;;;;;5087729;27;20516;-49
2022/07/06 16:02:16;;;;;;;0.83;0.83;;;25.00;38.00;;;;;;5110516;27;20564;-51
2022/07/06 16:04:57;;;;;;;1.23;0.73;;;25.00;38.30;;;;;;5127234;27;20537;-49
2022/07/06 16:07:39;;;;;;;1.60;0.93;;;25.00;38.50;;;;;;5069389;28;20604;-49
2022/07/06 16:10:39;;;;;;;2.43;1.57;;;25.00;38.50;;;;;;5088778;27;20547;-50
2022/07/06 16:13:21;;;;;;;0.90;0.87;;;25.00;38.20;;;;;;5101683;27;20545;-51
2022/07/06 16:16:03;;;;;;;1.67;1.10;;;25.10;38.00;;;;;;5066547;27;21164;-50
2022/07/06 16:18:44;;;;;;;2.30;1.30;;;25.10;37.90;;;;;;5100383;27;20605;-49
2022/07/06 16:21:25;;;;;;;1.53;1.10;;;25.10;37.60;;;;;;5072850;28;20940;-49
2022/07/06 16:24:07;;;;;;;2.80;1.10;;;25.10;37.70;;;;;;5086029;27;21886;-49
2022/07/06 16:26:48;;;;;;;3.00;1.33;;;25.10;37.90;;;;;;5048786;27;21022;-50
2022/07/06 16:29:29;;;;;;;0.80;0.80;;;25.10;38.10;;;;;;5087751;28;20530;-50
2022/07/06 16:32:09;;;;;;;1.60;1.27;;;25.10;38.50;;;;;;5083123;27;20975;-51
2022/07/06 16:34:50;;;;;;;1.40;0.90;;;25.10;38.40;;;;;;5107281;27;20563;-49
2022/07/06 16:37:33;;;;;;;2.20;1.10;;;25.10;38.30;;;;;;5059968;27;20549;-49
2022/07/06 16:40:14;;;;;;;2.00;1.40;;;25.10;38.30;;;;;;5106577;27;20582;-51
2022/07/06 16:42:54;;;;;;;2.23;1.23;;;25.10;38.60;;;;;;5080885;27;20562;-51
2022/07/06 16:45:36;;;;;;;1.60;1.10;;;25.10;38.50;;;;;;5126781;27;20586;-50
2022/07/06 16:48:18;;;;;;;1.10;0.90;;;25.20;38.60;;;;;;5072577;28;20542;-50
2022/07/06 16:50:59;;;;;;;1.53;1.10;;;25.10;38.80;;;;;;5124882;27;20602;-50
2022/07/06 16:53:40;;;;;;;1.47;1.30;;;25.10;38.60;;;;;;5126378;27;20527;-50
2022/07/06 16:56:22;;;;;;;1.30;1.00;;;25.10;38.50;;;;;;5053319;27;20580;-50
2022/07/06 16:59:03;;;;;;;2.20;1.30;;;25.10;38.50;;;;;;5091209;27;21089;-49
2022/07/06 17:01:44;;;;;;;1.30;1.00;;;25.20;38.70;;;;;;5048432;28;20603;-49
2022/07/06 17:04:26;;;;;;;1.40;1.30;;;25.20;38.60;;;;;;5087910;28;20530;-49
2022/07/06 17:07:07;;;;;;;1.50;1.10;;;25.10;38.60;;;;;;5110641;27;20575;-50
2022/07/06 17:09:49;;;;;;;1.43;1.10;;;25.20;38.90;;;;;;5085330;27;20816;-49
2022/07/06 17:12:35;;;;;;;1.00;0.90;;;25.20;39.20;;;;;;5088918;27;20535;-50
2022/07/06 17:15:16;;;;;;;1.97;1.50;;;25.20;39.00;;;;;;5170533;27;20583;-48
2022/07/06 17:17:56;;;;;;;1.53;1.10;;;25.20;38.70;;;;;;5062254;27;20605;-50
2022/07/06 17:20:37;;;;;;;1.30;0.87;;;25.10;38.90;;;;;;5085613;27;20511;-50
2022/07/06 17:23:19;;;;;;;1.47;1.03;;;25.10;38.90;;;;;;5103566;27;20584;-48
2022/07/06 17:26:01;;;;;;;1.20;1.10;;;25.20;39.20;;;;;;5067561;27;20534;-50
2022/07/06 17:28:42;;;;;;;0.93;0.93;;;25.20;39.10;;;;;;5112654;27;20523;-49
2022/07/06 17:31:23;;;;;;;1.43;1.17;;;25.20;39.10;;;;;;5107229;27;20663;-50
2022/07/06 17:34:06;;;;;;;1.70;1.30;;;25.20;39.10;;;;;;5062355;28;21051;-49
2022/07/06 17:36:47;;;;;;;1.27;1.17;;;25.20;39.30;;;;;;5079792;27;20898;-50
2022/07/06 17:39:29;;;;;;;2.00;1.47;;;25.20;39.50;;;;;;5078926;28;20945;-50
2022/07/06 17:42:10;;;;;;;1.70;1.60;;;25.20;39.50;;;;;;5073936;27;20598;-49
2022/07/06 17:44:52;;;;;;;1.77;1.23;;;25.20;39.50;;;;;;5107801;27;20559;-50
2022/07/06 17:47:33;;;;;;;2.07;1.77;;;25.20;39.50;;;;;;5067544;28;20611;-49
2022/07/06 17:50:14;;;;;;;4.20;1.40;;;25.20;39.60;;;;;;5066126;28;20557;-50
2022/07/06 17:52:56;;;;;;;1.30;1.20;;;25.20;39.10;;;;;;5046746;27;20962;-50
2022/07/06 17:55:38;;;;;;;2.43;1.57;;;25.20;39.50;;;;;;5126343;27;21151;-48
2022/07/06 17:58:18;;;;;;;2.00;1.37;;;25.20;39.70;;;;;;5088013;28;20568;-49
2022/07/06 18:00:58;;;;;;;1.23;1.13;;;25.20;39.50;;;;;;5075881;27;20961;-50
2022/07/06 18:03:40;;;;;;;2.07;1.70;;;25.20;39.50;;;;;;5087013;27;21066;-49
2022/07/06 18:06:21;;;;;;;1.50;1.40;;;25.20;39.50;;;;;;5100330;27;20598;-49
2022/07/06 18:09:05;;;;;;;2.23;1.10;;;25.20;39.80;;;;;;5080624;28;20560;-49
2022/07/06 18:11:46;;;;;;;1.43;1.17;;;25.20;39.50;;;;;;5119454;27;21146;-50
2022/07/06 18:14:34;;;;;;;1.60;1.50;;;25.20;39.60;;;;;;5088015;28;20860;-50
2022/07/06 18:17:15;;;;;;;1.57;1.47;;;25.20;39.50;;;;;;5048187;28;20557;-50
2022/07/06 18:19:57;;;;;;;1.70;1.40;;;25.20;39.50;;;;;;5087717;28;21037;-50
2022/07/06 18:22:38;;;;;;;1.83;1.50;;;25.20;39.50;;;;;;5056710;27;20619;-52
2022/07/06 18:25:19;;;;;;;2.00;1.33;;;25.20;39.50;;;;;;5083985;27;20541;-49
2022/07/06 18:28:01;;;;;;;1.50;1.40;;;25.20;39.60;;;;;;5115023;27;21171;-50
2022/07/06 18:30:44;;;;;;;3.87;1.43;;;25.20;39.50;;;;;;5120980;27;21154;-50
2022/07/06 18:33:25;;;;;;;2.03;1.40;;;25.20;39.50;;;;;;5087611;28;20532;-50
2022/07/06 18:36:10;;;;;;;3.07;1.50;;;25.20;39.60;;;;;;5118616;27;20864;-49
2022/07/06 18:38:51;;;;;;;1.50;1.40;;;25.20;39.60;;;;;;5100192;27;20593;-49
2022/07/06 18:41:33;;;;;;;1.60;1.40;;;25.20;39.60;;;;;;5063088;27;20586;-50
2022/07/06 18:44:14;;;;;;;2.30;1.53;;;25.20;39.50;;;;;;5087544;28;20530;-49
2022/07/06 18:46:55;;;;;;;2.10;1.30;;;25.20;39.50;;;;;;5068198;27;20629;-47
2022/07/06 18:49:36;;;;;;;1.50;1.27;;;25.20;39.60;;;;;;5088331;28;20581;-48
2022/07/06 18:52:18;;;;;;;1.67;1.50;;;25.20;39.50;;;;;;5071790;27;20593;-46
2022/07/06 18:54:58;;;;;;;2.07;1.33;;;25.20;39.50;;;;;;5090377;27;20581;-48
2022/07/06 18:57:39;;;;;;;2.33;1.40;;;25.20;39.60;;;;;;5117876;27;20965;-50
2022/07/06 19:00:21;;;;;;;1.20;1.10;;;25.20;39.50;;;;;;5087910;28;20517;-50
2022/07/06 19:03:02;;;;;;;2.33;1.37;;;25.20;39.60;;;;;;5101887;27;20549;-46
2022/07/06 19:05:44;;;;;;;1.70;1.60;;;25.20;39.50;;;;;;5077128;28;20590;-47
2022/07/06 19:08:25;;;;;;;1.20;1.10;;;25.30;39.60;;;;;;5085315;27;20596;-49
2022/07/06 19:11:07;;;;;;;1.63;1.37;;;25.20;39.50;;;;;;5114735;27;21089;-47
2022/07/06 19:13:48;;;;;;;2.50;1.50;;;25.30;39.60;;;;;;5067308;27;20529;-48
2022/07/06 19:16:29;;;;;;;2.10;1.40;;;25.20;39.60;;;;;;5112951;27;20532;-48
2022/07/06 19:19:10;;;;;;;1.50;1.33;;;25.20;39.50;;;;;;5077797;27;20590;-47
2022/07/06 19:21:53;;;;;;;1.60;1.43;;;25.20;39.50;;;;;;5075813;27;21033;-47
2022/07/06 19:24:33;;;;;;;1.23;1.00;;;25.30;39.60;;;;;;5120925;27;20524;-47
2022/07/06 19:27:15;;;;;;;1.13;1.03;;;25.30;39.60;;;;;;5086540;27;21121;-46
2022/07/06 19:29:56;;;;;;;2.10;1.40;;;25.30;39.80;;;;;;5087905;27;21031;-47